This is the latest recevied weather packets stored in our database for station/object KC8YYF. If no packets are shown the sender has not sent any weather packets the latest 10 day(s).
| Time | Temp. | Humidity | Pressure | Rain* | Wind** | Luminosity | Snow |
|---|---|---|---|---|---|---|---|
| 1777830261 | 14.44° C | 43% | 1017.4 hPa | 0 mm | - | 100 W/m² | - |
| 1777829960 | 14.44° C | 41% | 1017.4 hPa | 0 mm | - | 117 W/m² | - |
| 1777829657 | 15.56° C | 40% | 1017.2 hPa | 0 mm | - | 714 W/m² | - |
| 1777829354 | 15° C | 43% | 1017.3 hPa | 0 mm | - | 712 W/m² | - |
| 1777829051 | 14.44° C | 42% | 1017.5 hPa | 0 mm | - | 716 W/m² | - |
| 1777828747 | 15.56° C | 39% | 1017.5 hPa | 0 mm | - | 652 W/m² | - |
| 1777828444 | 14.44° C | 42% | 1017.6 hPa | 0 mm | - | 639 W/m² | - |
| 1777828142 | 15° C | 45% | 1017.7 hPa | 0 mm | - | 696 W/m² | - |
| 1777827838 | 15° C | 43% | 1017.7 hPa | 0 mm | - | 657 W/m² | - |
| 1777827535 | 15° C | 41% | 1017.7 hPa | 0 mm | - | 514 W/m² | - |
| 1777827233 | 13.33° C | 48% | 1018 hPa | 0 mm | - | 676 W/m² | - |
| 1777826928 | 14.44° C | 43% | 1018 hPa | 0 mm | - | 69 W/m² | - |
| 1777826626 | 15° C | 40% | 1018 hPa | 0 mm | - | 630 W/m² | - |
| 1777826322 | 14.44° C | 47% | 1018 hPa | 0 mm | - | 402 W/m² | - |
| 1777826020 | 15° C | 45% | 1017.8 hPa | 0 mm | - | 448 W/m² | - |
| 1777825716 | 13.89° C | 43% | 1018.2 hPa | 0 mm | - | 730 W/m² | - |
| 1777825414 | 13.89° C | 41% | 1018.1 hPa | 0 mm | - | 641 W/m² | - |
| 1777825111 | 14.44° C | 46% | 1018.2 hPa | 0 mm | - | 629 W/m² | - |
| 1777824807 | 13.89° C | 46% | 1018.3 hPa | 0 mm | - | 650 W/m² | - |
| 1777824504 | 13.89° C | 45% | 1018.3 hPa | 0 mm | - | 597 W/m² | - |
| 1777824200 | 13.89° C | 48% | 1018.3 hPa | 0 mm | - | 661 W/m² | - |
| 1777823896 | 13.33° C | 45% | 1018.5 hPa | 0 mm | - | 590 W/m² | - |
| 1777823594 | 13.33° C | 46% | 1018.5 hPa | 0 mm | - | 636 W/m² | - |
| 1777823291 | 13.33° C | 47% | 1018.5 hPa | 0 mm | - | 640 W/m² | - |
| 1777822988 | 13.33° C | 49% | 1018.5 hPa | 0 mm | - | 563 W/m² | - |
* Rain latest hour (hover to see other rain measurements)
** Current wind speed in m/s (hover to see current wind gust speed)